Aérodrome :
LOGIN :

S'inscrire | Disclaimer

   EN    FR    IT 

 










Légende :    VFR   VFR Marginal   IFR   IFR Intensif   IFR Très Intensif
Visi : 
Plafond : 
>= 8 km
>= 3000ft
5 à 8 km
1000 à 3000 ft
1500m à 5 km
500 à 1000 ft
800 à 1500m
200 à 500 ft
< 800m
< 200 ft
Symboles :   Orages  Brouillard  Fortes neiges  Fortes précipitations  Vent > 20 kt
SIGMETs :   Divers  Orages  Givrage  Turbulence  Onde Orograph.  Cendres Volcan.






- Altitude de l'aérodrome : 37 ft


EHVL - Vlieland Heliport

DERNIER METAR :
  • 252325Z AUTO 19017KT 3500 BR SCT003 BKN005 OVC012 04/03 Q1017 YLO

METARs EXPIRÉS :
  • 252309Z AUTO 19016KT 3500 BR FEW002 BKN011 OVC013 04/03 Q1017 YLO
  • 252255Z AUTO 19015KT 3700 BR SCT012 OVC014 04/03 Q1017 GRN
  • 252240Z AUTO 19017KT 3800 BR FEW002 SCT013 OVC015 04/03 Q1017 GRN
  • 252225Z AUTO 19017KT 4300 BR FEW013 OVC016 04/03 Q1017 GRN
  • 252212Z AUTO 19015KT 4100 BR SCT011 OVC015 04/03 Q1017 GRN
  • 252159Z AUTO 19015KT 3900 BR FEW004 BKN013 OVC015 04/03 Q1017 GRN
  • 252155Z AUTO 19015KT 3500 BR FEW004 BKN014 OVC017 04/04 Q1017 YLO
  • 252145Z AUTO 19015KT 3900 BR FEW005 SCT012 OVC015 04/03 Q1018 GRN
  • 252142Z AUTO 19015KT 3600 BR SCT004 SCT006 OVC014 04/04 Q1018 YLO
  • 252115Z AUTO 19016KT 3200 BR BKN001 BKN004 BKN006 04/03 Q1018 RED
  • 252108Z AUTO 19016KT 3100 BR SCT001 BKN004 BKN006 04/03 Q1018 RED
  • 252056Z AUTO 19017KT 3100 BR SCT001 OVC004 04/03 Q1018 RED
  • 252055Z AUTO 19017KT 3000 BR FEW001 OVC004 04/03 Q1018 YLO
  • 252038Z AUTO 19018KT 2900 BR FEW001 SCT004 BKN006 04/03 Q1018 YLO

Prévision TAF périmée.



MET'MAP, la Météo Aéronautique d'un coup d'oeil ! - Copyright ORBIFLY Décembre 2007 - Disclaimer

ORBIFLY MET'MAP TEAM :

Programmation & Développement : Alexandra Zaïnal
Sur une idée originale de : Baudouin d'Aumeries
Assistance à la programmation : Marc-Olivier Méhu
Soutien technique & logistique : Manuel Goepfert

Contact : metmap@orbifly.com




SOURCES & CREDITS :

   NOAA